Time;durP1;ratioP1;P1;durP2;ratioP2;P2;SDS_P1;SDS_P2;PMS_P1;PMS_P2;Temp;Humidity;BMP_temperature;BMP_pressure;BME280_temperature;BME280_humidity;BME280_pressure;Samples;Min_cycle;Max_cycle;Signal;HPM_P1;HPM_P2
2022/07/03 00:01:28;;;;;;;9.88;1.00;;;23.10;56.40;;;;;;4986825;28;20097;-63
2022/07/03 00:03:54;;;;;;;2.28;0.90;;;23.10;56.50;;;;;;4986736;28;20049;-64
2022/07/03 00:06:20;;;;;;;2.40;0.90;;;23.10;56.50;;;;;;4985913;28;20048;-64
2022/07/03 00:08:45;;;;;;;11.10;1.13;;;23.10;56.50;;;;;;4986547;28;20109;-65
2022/07/03 00:11:11;;;;;;;1.98;0.88;;;23.10;56.50;;;;;;4985192;28;20057;-64
2022/07/03 00:13:37;;;;;;;9.27;1.10;;;23.10;56.50;;;;;;4987341;28;20046;-64
2022/07/03 00:16:03;;;;;;;7.28;0.98;;;23.10;56.60;;;;;;4986100;28;20505;-65
2022/07/03 00:18:28;;;;;;;2.00;1.00;;;23.10;56.60;;;;;;4987803;28;20050;-65
2022/07/03 00:21:02;;;;;;;1.13;0.82;;;23.10;56.60;;;;;;4986783;28;20041;-67
2022/07/03 00:23:33;;;;;;;9.02;1.20;;;23.10;56.60;;;;;;4984967;28;20449;-67
2022/07/03 00:26:02;;;;;;;1.30;0.80;;;23.10;56.60;;;;;;4986014;28;20108;-67
2022/07/03 00:28:28;;;;;;;1.20;1.00;;;23.10;56.60;;;;;;4986494;28;20042;-68
2022/07/03 00:30:56;;;;;;;10.63;1.10;;;23.10;56.60;;;;;;4985915;28;20089;-67
2022/07/03 00:33:25;;;;;;;1.90;1.00;;;23.10;56.60;;;;;;4985580;28;20042;-67
2022/07/03 00:35:53;;;;;;;11.35;0.90;;;23.10;56.70;;;;;;4987110;28;20112;-68
2022/07/03 00:38:19;;;;;;;7.15;1.02;;;23.10;56.70;;;;;;4985444;28;20042;-69
2022/07/03 00:40:45;;;;;;;1.58;1.15;;;23.10;56.70;;;;;;4984287;28;20382;-67
2022/07/03 00:43:15;;;;;;;10.30;1.08;;;23.10;56.70;;;;;;4987134;28;20082;-67
2022/07/03 00:45:48;;;;;;;8.38;1.00;;;23.10;56.70;;;;;;4985988;28;20050;-66
2022/07/03 00:48:15;;;;;;;7.10;0.95;;;23.10;56.80;;;;;;4986822;28;20089;-68
2022/07/03 00:50:46;;;;;;;7.20;1.02;;;23.10;56.70;;;;;;4985129;28;20039;-68
2022/07/03 00:53:13;;;;;;;1.55;0.90;;;23.10;56.70;;;;;;4985047;28;20121;-68
2022/07/03 00:55:43;;;;;;;27.33;1.25;;;23.10;56.80;;;;;;4985741;28;20074;-67
2022/07/03 00:58:09;;;;;;;7.72;1.10;;;23.10;56.80;;;;;;4986484;28;20137;-69
2022/07/03 01:00:40;;;;;;;19.00;1.33;;;23.10;56.80;;;;;;4987157;28;20049;-68
2022/07/03 01:03:09;;;;;;;1.33;1.00;;;23.10;56.90;;;;;;4986062;28;20461;-66
2022/07/03 01:05:42;;;;;;;11.20;1.00;;;23.00;56.80;;;;;;4989886;28;20117;-68
2022/07/03 01:08:34;;;;;;;1.50;1.10;;;23.00;56.80;;;;;;4986991;28;20049;-68
2022/07/03 01:11:24;;;;;;;28.90;1.55;;;23.00;56.80;;;;;;4987858;28;20555;-68
2022/07/03 01:14:15;;;;;;;24.98;1.38;;;23.00;56.80;;;;;;4984982;28;20064;-68
2022/07/03 01:16:56;;;;;;;7.40;1.10;;;23.00;56.80;;;;;;4978583;28;20104;-67
2022/07/03 01:19:44;;;;;;;10.10;1.00;;;23.00;56.80;;;;;;4990717;28;20577;-69
2022/07/03 01:22:27;;;;;;;13.70;1.17;;;23.00;56.80;;;;;;4990079;28;20557;-68
2022/07/03 01:25:30;;;;;;;7.95;1.13;;;23.00;56.80;;;;;;4974667;28;20048;-68
2022/07/03 01:28:11;;;;;;;1.83;0.90;;;23.00;56.80;;;;;;4988101;28;20058;-67
2022/07/03 01:30:46;;;;;;;6.35;0.88;;;23.00;56.80;;;;;;4989931;28;20125;-66
2022/07/03 01:33:16;;;;;;;11.48;1.20;;;23.00;56.90;;;;;;4989215;28;20435;-68
2022/07/03 01:35:57;;;;;;;1.48;0.98;;;23.00;56.90;;;;;;4990275;28;20042;-68
2022/07/03 01:38:26;;;;;;;1.67;1.13;;;23.00;56.90;;;;;;4988710;28;20046;-69
2022/07/03 01:40:54;;;;;;;7.25;1.10;;;23.00;56.90;;;;;;4988993;28;20117;-68
2022/07/03 01:43:26;;;;;;;25.90;1.42;;;22.90;56.90;;;;;;4989379;28;20034;-68
2022/07/03 01:45:55;;;;;;;11.68;1.05;;;22.90;57.00;;;;;;4987734;28;20065;-67
2022/07/03 01:48:22;;;;;;;1.92;1.00;;;22.90;57.00;;;;;;4989589;28;20039;-69
2022/07/03 01:50:49;;;;;;;1.80;1.08;;;22.90;57.00;;;;;;4987849;28;20046;-68
2022/07/03 01:53:16;;;;;;;8.40;1.35;;;22.90;57.00;;;;;;4988720;28;20054;-67
2022/07/03 01:55:43;;;;;;;14.32;1.20;;;22.90;57.00;;;;;;4988433;28;20049;-66
2022/07/03 01:58:09;;;;;;;9.10;1.10;;;22.90;57.00;;;;;;4989454;28;20077;-67
2022/07/03 02:00:57;;;;;;;14.88;1.20;;;22.90;57.00;;;;;;4988626;28;20046;-67
2022/07/03 02:03:27;;;;;;;7.87;1.13;;;22.90;57.00;;;;;;4987889;28;20407;-67
2022/07/03 02:06:07;;;;;;;13.18;1.30;;;22.90;57.00;;;;;;4989426;28;20503;-67
2022/07/03 02:08:49;;;;;;;2.08;1.10;;;22.90;57.00;;;;;;4986934;28;20077;-67
2022/07/03 02:11:19;;;;;;;1.73;1.15;;;22.90;57.00;;;;;;4988185;28;20097;-64
2022/07/03 02:14:03;;;;;;;2.15;1.10;;;22.90;57.00;;;;;;4989173;28;20046;-64
2022/07/03 02:16:31;;;;;;;7.63;1.10;;;22.90;57.00;;;;;;4987634;28;20711;-65
2022/07/03 02:19:04;;;;;;;7.07;1.20;;;22.90;57.00;;;;;;4989173;28;20046;-64
2022/07/03 02:21:31;;;;;;;7.05;1.00;;;22.90;57.00;;;;;;4985890;28;20619;-63
2022/07/03 02:24:19;;;;;;;13.85;1.20;;;22.90;57.00;;;;;;4988927;28;20058;-63
2022/07/03 02:26:53;;;;;;;1.80;1.05;;;22.90;57.10;;;;;;4989547;28;20100;-65
2022/07/03 02:29:24;;;;;;;9.75;1.20;;;22.90;57.00;;;;;;4986377;28;20125;-67
2022/07/03 02:31:59;;;;;;;17.25;1.35;;;22.90;57.00;;;;;;4988650;28;20494;-64
2022/07/03 02:34:27;;;;;;;7.22;1.10;;;22.90;57.00;;;;;;4987209;28;20070;-65
2022/07/03 02:36:57;;;;;;;6.78;1.13;;;22.80;56.90;;;;;;4987960;28;20062;-68
2022/07/03 02:39:34;;;;;;;1.83;0.90;;;22.90;57.00;;;;;;4987075;28;20057;-64
2022/07/03 02:42:03;;;;;;;7.03;1.30;;;22.80;56.90;;;;;;4987819;28;20845;-64
2022/07/03 02:44:32;;;;;;;;;;;22.80;56.90;;;;;;4989137;28;20510;-63
2022/07/03 02:47:10;;;;;;;15.95;1.20;;;22.80;56.90;;;;;;4986079;28;20433;-63
2022/07/03 02:50:20;;;;;;;5.22;1.10;;;22.80;56.90;;;;;;4988185;28;20562;-64
2022/07/03 02:53:08;;;;;;;8.68;1.10;;;22.80;56.90;;;;;;4982853;28;20065;-64
2022/07/03 02:55:41;;;;;;;32.30;1.67;;;22.80;56.90;;;;;;4987199;28;20129;-63
2022/07/03 02:58:28;;;;;;;26.55;1.52;;;22.80;56.90;;;;;;4988471;28;20129;-65
2022/07/03 03:01:14;;;;;;;2.63;1.40;;;22.80;56.90;;;;;;4987537;28;20042;-65
2022/07/03 03:03:58;;;;;;;9.77;1.20;;;22.80;56.90;;;;;;4987383;28;20277;-68
2022/07/03 03:06:26;;;;;;;25.45;1.52;;;22.80;56.90;;;;;;4987255;28;20047;-68
2022/07/03 03:09:01;;;;;;;1.20;1.10;;;22.80;56.90;;;;;;4986669;28;20548;-66
2022/07/03 03:11:45;;;;;;;1.67;1.00;;;22.70;56.90;;;;;;4986771;28;20145;-67
2022/07/03 03:14:15;;;;;;;1.00;0.90;;;22.80;56.90;;;;;;4988163;28;20125;-67
2022/07/03 03:16:52;;;;;;;1.35;1.00;;;22.80;56.90;;;;;;4986395;28;20043;-67
2022/07/03 03:19:22;;;;;;;6.82;1.13;;;22.80;56.90;;;;;;4987788;28;20034;-64
2022/07/03 03:22:09;;;;;;;18.35;1.40;;;22.70;56.90;;;;;;4986187;28;20050;-64
2022/07/03 03:24:35;;;;;;;22.13;1.48;;;22.80;56.90;;;;;;4974379;28;20525;-67
2022/07/03 03:27:01;;;;;;;30.42;1.42;;;22.70;56.90;;;;;;4986962;28;20061;-64
2022/07/03 03:29:27;;;;;;;9.48;1.20;;;22.70;56.90;;;;;;4986563;28;20125;-68
2022/07/03 03:31:53;;;;;;;1.42;1.08;;;22.70;56.90;;;;;;4987352;28;20057;-64
2022/07/03 03:34:20;;;;;;;22.88;1.35;;;22.70;56.90;;;;;;4986329;28;20046;-64
2022/07/03 03:36:45;;;;;;;15.05;1.30;;;22.70;56.90;;;;;;4986609;28;20065;-65
2022/07/03 03:39:11;;;;;;;24.98;1.50;;;22.70;56.90;;;;;;4985317;28;20050;-65
2022/07/03 03:41:38;;;;;;;24.85;1.42;;;22.70;57.30;;;;;;4987578;28;20126;-66
2022/07/03 03:44:04;;;;;;;8.60;1.17;;;22.70;57.60;;;;;;4986930;28;20093;-64
2022/07/03 03:46:29;;;;;;;29.48;1.70;;;22.70;56.90;;;;;;4986825;28;20554;-66
2022/07/03 03:48:56;;;;;;;9.60;1.30;;;22.70;56.90;;;;;;4987613;28;20034;-64
2022/07/03 03:51:22;;;;;;;7.60;1.30;;;22.70;56.90;;;;;;4985813;28;20046;-67
2022/07/03 03:53:47;;;;;;;17.60;1.40;;;22.70;56.90;;;;;;4987082;28;20536;-68
2022/07/03 03:56:16;;;;;;;12.18;1.30;;;22.70;56.90;;;;;;4986007;28;20045;-63
2022/07/03 03:58:43;;;;;;;1.20;1.10;;;22.70;56.90;;;;;;4987281;28;20475;-65
2022/07/03 04:01:11;;;;;;;18.58;1.20;;;22.70;56.90;;;;;;4984484;28;20469;-65
2022/07/03 04:03:38;;;;;;;9.48;1.50;;;22.70;56.90;;;;;;4986708;28;20042;-66
2022/07/03 04:06:04;;;;;;;12.35;1.20;;;22.70;56.90;;;;;;4985748;28;20490;-69
2022/07/03 04:08:30;;;;;;;22.83;1.35;;;22.70;56.90;;;;;;4985031;28;20045;-68
2022/07/03 04:10:56;;;;;;;11.90;1.40;;;22.70;56.90;;;;;;4986796;28;20042;-68
2022/07/03 04:13:21;;;;;;;24.67;1.65;;;22.70;56.90;;;;;;4985642;28;20510;-64
2022/07/03 04:15:48;;;;;;;17.15;1.40;;;22.70;56.90;;;;;;4987183;28;20046;-66
2022/07/03 04:18:14;;;;;;;1.85;1.20;;;22.70;56.90;;;;;;4985694;28;20486;-66
2022/07/03 04:20:40;;;;;;;13.75;1.38;;;22.70;56.90;;;;;;4986985;28;20120;-69
2022/07/03 04:23:06;;;;;;;10.43;1.20;;;22.70;56.90;;;;;;4984063;28;20092;-66
2022/07/03 04:25:32;;;;;;;14.27;1.30;;;22.70;56.90;;;;;;4986137;28;20076;-67
2022/07/03 04:27:58;;;;;;;18.40;1.58;;;22.70;56.90;;;;;;4987083;28;20057;-68
2022/07/03 04:30:23;;;;;;;29.35;1.80;;;22.60;56.80;;;;;;4986196;28;20045;-69
2022/07/03 04:32:49;;;;;;;27.23;1.55;;;22.70;56.90;;;;;;4987157;28;20379;-67
2022/07/03 04:35:15;;;;;;;27.40;1.40;;;22.70;56.90;;;;;;4986172;28;20482;-69
2022/07/03 04:37:42;;;;;;;10.55;1.42;;;22.70;56.90;;;;;;4986518;28;20063;-67
2022/07/03 04:40:09;;;;;;;7.40;1.30;;;22.70;56.90;;;;;;4988632;28;20050;-68
2022/07/03 04:42:34;;;;;;;17.98;1.30;;;22.70;56.90;;;;;;4991044;28;20082;-65
2022/07/03 04:45:00;;;;;;;20.77;1.42;;;22.70;56.90;;;;;;4991395;28;20066;-67
2022/07/03 04:47:26;;;;;;;14.60;1.42;;;22.70;56.90;;;;;;4990194;28;20136;-67
2022/07/03 04:49:51;;;;;;;17.55;1.42;;;22.60;56.80;;;;;;4991630;28;20034;-69
2022/07/03 04:52:17;;;;;;;12.40;1.45;;;22.60;56.80;;;;;;4988090;28;20046;-68
2022/07/03 04:54:43;;;;;;;23.60;1.45;;;22.60;56.80;;;;;;4990730;28;20117;-67
2022/07/03 04:57:09;;;;;;;2.13;1.20;;;22.60;56.80;;;;;;4989636;28;20073;-69
2022/07/03 04:59:34;;;;;;;1.67;1.13;;;22.60;56.80;;;;;;4990707;28;20048;-68
2022/07/03 05:02:00;;;;;;;3.53;1.30;;;22.60;56.80;;;;;;4990139;28;20069;-68
2022/07/03 05:04:25;;;;;;;14.55;1.50;;;22.60;56.80;;;;;;4990523;28;20042;-67
2022/07/03 05:06:51;;;;;;;15.70;1.42;;;22.60;56.90;;;;;;4990156;28;20108;-68
2022/07/03 05:09:18;;;;;;;29.00;1.60;;;22.60;56.80;;;;;;4988474;28;20125;-69
2022/07/03 05:11:44;;;;;;;21.20;1.67;;;22.60;56.80;;;;;;4990372;28;20074;-67
2022/07/03 05:14:09;;;;;;;8.23;1.52;;;22.60;56.80;;;;;;4989183;28;20105;-67
2022/07/03 05:16:35;;;;;;;15.15;1.42;;;22.60;56.80;;;;;;4989930;28;20184;-69
2022/07/03 05:19:00;;;;;;;9.45;1.30;;;22.60;56.80;;;;;;4989371;28;20045;-67
2022/07/03 05:21:26;;;;;;;28.48;1.83;;;22.60;56.80;;;;;;4989120;28;20720;-67
2022/07/03 05:23:52;;;;;;;26.25;1.67;;;22.60;56.80;;;;;;4989139;28;20042;-65
2022/07/03 05:26:18;;;;;;;1.45;1.20;;;22.60;56.90;;;;;;4989479;28;20130;-68
2022/07/03 05:28:43;;;;;;;28.83;1.58;;;22.60;56.80;;;;;;4990158;28;20043;-66
2022/07/03 05:31:09;;;;;;;25.58;1.70;;;22.60;56.80;;;;;;4988098;28;20074;-68
2022/07/03 05:33:35;;;;;;;27.92;1.50;;;22.60;56.80;;;;;;4989751;28;20041;-67
2022/07/03 05:36:01;;;;;;;27.77;1.70;;;22.70;56.90;;;;;;4988572;28;20038;-69
2022/07/03 05:41:11;;;;;;;14.10;1.50;;;22.70;56.90;;;;;;4989082;28;20424;-66
2022/07/03 05:43:37;;;;;;;8.02;1.17;;;22.70;56.90;;;;;;4988689;28;20038;-68
2022/07/03 05:46:03;;;;;;;7.88;1.10;;;22.70;56.90;;;;;;4989756;28;20044;-68
2022/07/03 05:48:29;;;;;;;1.20;1.10;;;22.70;56.90;;;;;;4988061;28;20549;-64
2022/07/03 05:50:55;;;;;;;1.25;1.13;;;22.70;56.80;;;;;;4989222;28;20125;-68
2022/07/03 05:53:20;;;;;;;2.67;1.50;;;22.70;56.80;;;;;;4987215;28;20042;-64
2022/07/03 05:55:46;;;;;;;12.40;1.30;;;22.70;56.70;;;;;;4988161;28;20054;-68
2022/07/03 05:58:11;;;;;;;11.48;1.40;;;22.70;56.70;;;;;;4989102;28;20129;-65
2022/07/03 06:00:37;;;;;;;27.77;1.52;;;22.70;56.70;;;;;;4988414;28;20030;-67
2022/07/03 06:03:03;;;;;;;1.50;1.10;;;22.70;56.70;;;;;;4989722;28;20112;-64
2022/07/03 06:05:28;;;;;;;8.07;1.20;;;22.80;56.80;;;;;;4988287;28;20469;-66
2022/07/03 06:07:54;;;;;;;1.80;1.20;;;22.80;56.90;;;;;;4988747;28;20069;-65
2022/07/03 06:10:20;;;;;;;1.90;1.10;;;22.80;56.90;;;;;;4987397;28;20410;-63
2022/07/03 06:12:46;;;;;;;9.50;1.45;;;22.80;57.00;;;;;;4989249;28;20072;-64
2022/07/03 06:15:11;;;;;;;1.45;1.30;;;22.90;57.00;;;;;;4988819;28;20050;-68
2022/07/03 06:17:37;;;;;;;24.20;1.45;;;22.90;57.00;;;;;;4988518;28;20045;-64
2022/07/03 06:20:06;;;;;;;1.52;1.10;;;22.90;57.00;;;;;;4988790;28;20053;-65
2022/07/03 06:22:33;;;;;;;18.45;1.33;;;22.90;57.00;;;;;;4987516;28;20049;-63
2022/07/03 06:24:59;;;;;;;1.73;1.17;;;22.90;57.00;;;;;;4988806;28;20042;-64
2022/07/03 06:27:24;;;;;;;25.92;1.42;;;22.80;56.90;;;;;;4987758;28;20158;-65
2022/07/03 06:29:50;;;;;;;2.25;1.30;;;22.90;57.00;;;;;;4989696;28;20161;-64
2022/07/03 06:32:17;;;;;;;22.13;1.67;;;22.90;57.00;;;;;;4987861;28;20058;-65
2022/07/03 06:34:45;;;;;;;1.98;1.10;;;22.90;57.00;;;;;;4988721;28;20042;-65
2022/07/03 06:37:11;;;;;;;;;;;22.80;56.90;;;;;;4988060;28;20564;-68
2022/07/03 06:39:36;;;;;;;32.15;1.63;;;22.90;57.00;;;;;;4987044;28;20032;-64
2022/07/03 06:42:02;;;;;;;3.05;1.00;;;22.90;57.00;;;;;;4988875;28;20050;-64
2022/07/03 06:44:28;;;;;;;27.63;1.52;;;22.90;57.00;;;;;;4986076;28;20421;-64
2022/07/03 06:46:53;;;;;;;27.60;1.48;;;23.00;57.20;;;;;;4988808;28;20117;-63
2022/07/03 06:49:19;;;;;;;22.67;1.45;;;23.00;57.20;;;;;;4987163;28;20376;-63
2022/07/03 06:51:45;;;;;;;26.45;1.30;;;23.00;57.20;;;;;;4987956;28;20613;-64
2022/07/03 06:54:11;;;;;;;21.63;1.10;;;23.10;57.20;;;;;;4987639;28;20042;-63
2022/07/03 06:56:36;;;;;;;18.05;1.50;;;23.10;57.10;;;;;;4986621;28;20042;-63
2022/07/03 06:59:03;;;;;;;12.73;1.20;;;23.00;57.00;;;;;;4987828;28;20042;-66
2022/07/03 07:01:28;;;;;;;1.20;1.10;;;23.10;57.10;;;;;;4986227;28;20046;-68
2022/07/03 07:03:54;;;;;;;17.00;1.35;;;23.10;57.10;;;;;;4987317;28;20101;-68
2022/07/03 07:06:19;;;;;;;19.63;1.30;;;23.10;57.10;;;;;;4986370;28;20641;-68
2022/07/03 07:08:46;;;;;;;1.35;0.90;;;23.10;57.10;;;;;;4987888;28;20497;-69
2022/07/03 07:11:11;;;;;;;1.92;1.17;;;23.10;57.00;;;;;;4985918;28;20678;-68
2022/07/03 07:13:37;;;;;;;21.85;1.45;;;23.10;57.00;;;;;;4986882;28;20167;-68
2022/07/03 07:16:03;;;;;;;9.30;1.20;;;23.10;57.00;;;;;;4988101;28;20042;-67
2022/07/03 07:18:28;;;;;;;1.30;1.10;;;23.10;57.00;;;;;;4987593;28;20038;-68
2022/07/03 07:20:54;;;;;;;13.15;1.10;;;23.10;57.00;;;;;;4989086;28;20038;-66
2022/07/03 07:23:19;;;;;;;26.02;1.45;;;23.10;57.00;;;;;;4985952;28;20408;-68
2022/07/03 07:25:45;;;;;;;27.60;1.65;;;23.20;57.10;;;;;;4987888;28;20046;-69
2022/07/03 07:28:11;;;;;;;2.15;1.10;;;23.20;57.10;;;;;;4986901;28;20064;-68
2022/07/03 07:30:38;;;;;;;1.20;1.00;;;23.20;57.10;;;;;;4986169;28;20046;-68
2022/07/03 07:33:04;;;;;;;6.78;1.10;;;23.20;57.10;;;;;;4986962;28;20050;-65
2022/07/03 07:35:29;;;;;;;25.58;1.42;;;23.20;57.00;;;;;;4986918;28;20124;-68
2022/07/03 07:37:55;;;;;;;1.20;1.10;;;23.20;57.00;;;;;;4986923;28;20050;-67
2022/07/03 07:40:20;;;;;;;29.40;1.25;;;23.20;56.90;;;;;;4986695;28;20086;-65
2022/07/03 07:42:46;;;;;;;16.77;1.27;;;23.20;56.90;;;;;;4988285;28;20066;-67
2022/07/03 07:45:11;;;;;;;3.03;1.00;;;23.20;56.90;;;;;;4986868;28;20039;-67
2022/07/03 07:47:37;;;;;;;8.82;1.13;;;23.20;57.00;;;;;;4986676;28;20411;-67
2022/07/03 07:50:04;;;;;;;21.98;1.23;;;23.20;57.00;;;;;;4986895;28;20478;-67
2022/07/03 07:52:30;;;;;;;9.07;1.10;;;23.20;57.00;;;;;;4987077;28;20070;-65
2022/07/03 07:54:55;;;;;;;2.55;0.98;;;23.30;57.10;;;;;;4986522;28;20092;-65
2022/07/03 07:57:21;;;;;;;1.55;1.00;;;23.30;57.10;;;;;;4986471;28;20305;-68
2022/07/03 07:59:46;;;;;;;10.82;1.17;;;23.30;57.10;;;;;;4986937;28;20087;-65
2022/07/03 08:07:41;;;;;;;1.25;0.90;;;23.40;57.10;;;;;;4986366;28;20054;-66
2022/07/03 08:10:06;;;;;;;2.85;1.05;;;23.50;57.10;;;;;;4985551;28;20046;-67
2022/07/03 08:12:32;;;;;;;28.95;1.27;;;23.50;57.00;;;;;;4987319;28;20042;-66
2022/07/03 08:14:58;;;;;;;1.70;1.00;;;23.50;57.00;;;;;;4986318;28;20484;-67
2022/07/03 08:17:23;;;;;;;1.45;1.00;;;23.50;56.90;;;;;;4986724;28;20038;-68
2022/07/03 08:19:49;;;;;;;0.80;0.80;;;23.60;56.90;;;;;;4985908;28;20050;-67
2022/07/03 08:22:14;;;;;;;0.95;0.80;;;23.60;56.90;;;;;;4986408;28;20038;-67
2022/07/03 08:24:40;;;;;;;2.05;1.10;;;23.60;56.80;;;;;;4985363;28;20092;-66
2022/07/03 08:27:05;;;;;;;14.32;1.10;;;23.60;56.80;;;;;;4985440;28;20502;-66
2022/07/03 08:29:31;;;;;;;2.03;1.08;;;23.60;56.80;;;;;;4985856;28;20059;-67
2022/07/03 08:31:57;;;;;;;7.72;1.00;;;23.60;56.80;;;;;;4985906;28;20078;-68
2022/07/03 08:34:23;;;;;;;2.40;1.00;;;23.70;56.80;;;;;;4986680;28;20468;-67
2022/07/03 08:36:49;;;;;;;1.40;1.00;;;23.70;56.80;;;;;;4984704;28;20062;-67
2022/07/03 08:39:14;;;;;;;25.38;1.35;;;23.70;56.70;;;;;;4985905;28;20050;-66
2022/07/03 08:41:41;;;;;;;19.50;1.10;;;23.70;56.60;;;;;;4985772;28;20046;-63
2022/07/03 08:44:12;;;;;;;1.85;0.98;;;23.80;56.50;;;;;;4986844;28;20105;-64
2022/07/03 08:46:39;;;;;;;1.48;0.80;;;23.80;56.40;;;;;;4985791;28;20041;-64
2022/07/03 08:49:06;;;;;;;9.65;0.90;;;23.70;56.40;;;;;;4985972;28;20064;-67
2022/07/03 08:51:32;;;;;;;13.23;1.00;;;23.70;56.30;;;;;;4986537;28;20045;-63
2022/07/03 08:54:01;;;;;;;29.83;1.25;;;23.80;56.30;;;;;;4985310;28;20289;-64
2022/07/03 08:56:27;;;;;;;7.70;0.90;;;23.70;57.00;;;;;;4986797;28;20030;-64
2022/07/03 08:58:52;;;;;;;1.52;0.90;;;23.80;56.30;;;;;;4985583;28;20398;-63
2022/07/03 09:01:19;;;;;;;24.08;1.10;;;23.70;56.20;;;;;;4985896;28;20058;-64
2022/07/03 09:03:45;;;;;;;0.90;0.70;;;23.70;56.10;;;;;;4986174;28;20313;-64
2022/07/03 09:06:14;;;;;;;9.23;0.93;;;23.70;56.10;;;;;;4986100;28;20133;-64
2022/07/03 09:08:41;;;;;;;1.13;0.80;;;23.80;56.20;;;;;;4985252;28;20052;-63
2022/07/03 09:11:07;;;;;;;14.05;0.90;;;23.80;56.20;;;;;;4984997;28;20085;-64
2022/07/03 09:13:33;;;;;;;1.63;0.88;;;23.70;56.20;;;;;;4986651;28;20035;-63
2022/07/03 09:15:58;;;;;;;1.50;1.00;;;23.80;56.20;;;;;;4967907;28;20055;-64
2022/07/03 09:18:42;;;;;;;26.70;1.08;;;23.80;56.20;;;;;;4986267;28;20038;-65
2022/07/03 09:21:08;;;;;;;3.15;1.05;;;23.80;56.20;;;;;;4985785;28;20101;-64
2022/07/03 09:23:44;;;;;;;2.20;0.85;;;23.80;56.20;;;;;;4985247;28;20429;-65
2022/07/03 09:26:18;;;;;;;16.48;0.90;;;23.80;56.20;;;;;;4987988;28;20053;-64
2022/07/03 09:28:51;;;;;;;8.38;0.90;;;23.90;56.20;;;;;;4989674;28;20051;-62
2022/07/03 09:31:28;;;;;;;1.42;0.70;;;23.90;56.20;;;;;;4990390;28;20069;-64
2022/07/03 09:34:00;;;;;;;4.43;0.80;;;23.90;56.10;;;;;;4989755;28;20453;-65
2022/07/03 09:36:51;;;;;;;9.00;0.80;;;23.90;56.10;;;;;;4989353;28;20096;-64
2022/07/03 09:39:21;;;;;;;0.93;0.70;;;23.90;56.00;;;;;;4989244;28;20506;-65
2022/07/03 09:41:57;;;;;;;28.95;1.10;;;23.90;56.10;;;;;;4988395;28;20034;-64
2022/07/03 09:44:35;;;;;;;7.85;0.90;;;23.90;55.90;;;;;;4989830;28;20110;-63
2022/07/03 09:47:17;;;;;;;1.52;0.75;;;23.90;55.90;;;;;;4987725;28;20137;-63
2022/07/03 09:49:54;;;;;;;8.98;0.90;;;23.90;55.80;;;;;;4988635;28;20050;-64
2022/07/03 09:52:38;;;;;;;28.92;1.00;;;23.90;55.80;;;;;;4989373;28;20045;-65
2022/07/03 09:55:10;;;;;;;26.80;1.00;;;24.00;55.80;;;;;;4987799;28;20046;-69
2022/07/03 09:57:50;;;;;;;1.98;0.70;;;24.00;55.80;;;;;;4989444;28;20046;-68
2022/07/03 10:00:22;;;;;;;1.40;0.70;;;24.00;55.70;;;;;;4989799;28;20054;-68
2022/07/03 10:03:05;;;;;;;1.63;0.70;;;24.00;55.70;;;;;;4989336;28;20030;-69
2022/07/03 10:05:37;;;;;;;21.83;1.08;;;24.00;55.60;;;;;;4989911;28;20050;-64
2022/07/03 10:08:08;;;;;;;1.40;0.73;;;24.00;55.60;;;;;;4987207;28;20128;-63
2022/07/03 10:10:36;;;;;;;28.10;1.20;;;24.00;55.60;;;;;;4989867;28;20046;-66
2022/07/03 10:13:03;;;;;;;9.77;0.88;;;24.00;55.60;;;;;;4988772;28;20035;-64
2022/07/03 10:15:30;;;;;;;1.08;0.80;;;24.10;55.60;;;;;;4989119;28;20081;-65
2022/07/03 10:17:57;;;;;;;23.33;1.08;;;24.00;55.50;;;;;;4989531;28;20054;-64
2022/07/03 10:20:28;;;;;;;19.05;1.00;;;24.10;55.50;;;;;;4988018;28;20038;-64
2022/07/03 10:22:55;;;;;;;1.13;0.70;;;24.10;55.50;;;;;;4988462;28;20038;-64
2022/07/03 10:25:21;;;;;;;28.58;1.30;;;24.00;55.30;;;;;;4988361;28;20146;-62
2022/07/03 10:27:48;;;;;;;17.55;1.00;;;24.10;55.30;;;;;;4989614;28;20488;-63
2022/07/03 10:30:16;;;;;;;22.90;0.93;;;24.10;55.20;;;;;;4988942;28;20046;-63
2022/07/03 10:32:44;;;;;;;16.77;0.80;;;24.10;55.90;;;;;;4988387;28;20038;-63
2022/07/03 10:35:11;;;;;;;;;;;24.10;55.10;;;;;;4989368;28;20046;-63
2022/07/03 10:37:45;;;;;;;1.25;0.73;;;24.10;55.00;;;;;;4986956;28;20028;-66
2022/07/03 10:46:16;;;;;;;0.85;0.52;;;24.10;55.00;;;;;;4987880;28;20038;-64
2022/07/03 10:49:05;;;;;;;0.98;0.63;;;24.10;54.90;;;;;;4988813;28;20477;-64
2022/07/03 10:51:51;;;;;;;10.05;0.80;;;24.10;54.80;;;;;;4987249;28;20042;-64
2022/07/03 10:54:24;;;;;;;1.88;0.70;;;24.10;54.80;;;;;;4983757;28;20081;-63
2022/07/03 10:57:08;;;;;;;1.17;0.70;;;24.10;54.80;;;;;;4989091;28;20048;-64
2022/07/03 10:59:44;;;;;;;2.03;0.68;;;24.10;54.70;;;;;;4986222;28;20419;-64
2022/07/03 11:02:27;;;;;;;32.20;1.13;;;24.10;54.70;;;;;;4988386;28;20046;-64
2022/07/03 11:05:01;;;;;;;0.88;0.70;;;24.20;54.70;;;;;;4987683;28;20053;-63
2022/07/03 11:07:28;;;;;;;18.45;0.80;;;24.20;54.70;;;;;;4987221;28;20034;-64
2022/07/03 11:10:06;;;;;;;1.27;0.60;;;24.20;54.70;;;;;;4987545;28;20038;-64
2022/07/03 11:12:53;;;;;;;7.88;0.77;;;24.20;54.50;;;;;;4986890;28;20078;-64
2022/07/03 11:15:28;;;;;;;2.13;0.60;;;24.20;54.50;;;;;;4987982;28;20235;-66
2022/07/03 11:18:27;;;;;;;26.98;0.98;;;24.20;54.50;;;;;;4987459;28;20153;-64
2022/07/03 11:20:52;;;;;;;1.10;0.60;;;24.20;54.40;;;;;;4986836;28;20050;-64
2022/07/03 11:23:27;;;;;;;1.00;0.70;;;24.20;54.50;;;;;;4986891;28;20057;-64
2022/07/03 11:26:00;;;;;;;9.93;0.82;;;24.20;54.50;;;;;;4986812;28;20509;-64
2022/07/03 11:28:31;;;;;;;2.10;0.65;;;24.20;54.40;;;;;;4988163;28;20054;-63
2022/07/03 11:31:18;;;;;;;0.88;0.50;;;24.20;54.40;;;;;;4986742;28;20046;-65
2022/07/03 11:33:57;;;;;;;30.45;1.13;;;24.30;54.50;;;;;;4986695;28;20434;-63
2022/07/03 11:36:31;;;;;;;0.95;0.60;;;24.30;54.40;;;;;;4987310;28;20516;-63
2022/07/03 11:39:00;;;;;;;10.10;0.77;;;24.30;54.40;;;;;;4986729;28;20046;-66
2022/07/03 11:41:27;;;;;;;1.02;0.60;;;24.30;54.40;;;;;;4987923;28;20034;-65
2022/07/03 11:43:56;;;;;;;10.05;0.70;;;24.30;54.30;;;;;;4987393;28;20105;-64
2022/07/03 11:46:23;;;;;;;0.98;0.68;;;24.40;54.20;;;;;;4986947;28;20038;-65
2022/07/03 11:48:49;;;;;;;0.82;0.63;;;24.60;53.90;;;;;;4987426;28;20371;-67
2022/07/03 11:51:16;;;;;;;26.80;0.88;;;24.70;53.60;;;;;;4986230;28;20477;-66
2022/07/03 11:53:42;;;;;;;1.00;0.60;;;24.80;53.50;;;;;;4986772;28;20517;-66
2022/07/03 11:56:08;;;;;;;1.92;0.70;;;24.90;53.20;;;;;;4986349;28;20502;-66
2022/07/03 11:58:50;;;;;;;18.45;0.80;;;25.10;52.80;;;;;;4987463;28;20088;-65
2022/07/03 12:01:27;;;;;;;1.52;0.63;;;25.30;52.40;;;;;;4986653;28;20146;-65
2022/07/03 12:04:03;;;;;;;7.22;0.70;;;25.40;52.00;;;;;;4986446;28;20046;-65
2022/07/03 12:06:37;;;;;;;0.60;0.40;;;25.50;51.70;;;;;;4986861;28;20125;-66
2022/07/03 12:09:16;;;;;;;28.55;1.10;;;25.40;51.80;;;;;;4985431;28;20046;-65
2022/07/03 12:12:01;;;;;;;0.60;0.55;;;25.20;51.90;;;;;;4987691;28;20050;-65
2022/07/03 12:14:46;;;;;;;0.90;0.60;;;25.10;52.10;;;;;;4987158;28;20414;-64
2022/07/03 12:17:33;;;;;;;14.48;0.70;;;25.00;52.30;;;;;;4985405;28;20054;-65
2022/07/03 12:20:01;;;;;;;13.88;0.70;;;25.00;52.40;;;;;;4986506;28;20053;-66
2022/07/03 12:22:28;;;;;;;0.85;0.50;;;25.00;52.50;;;;;;4985624;28;20045;-66
2022/07/03 12:25:06;;;;;;;2.63;0.60;;;24.90;52.60;;;;;;4985989;28;20046;-65
2022/07/03 12:27:33;;;;;;;3.80;0.70;;;24.80;52.60;;;;;;4986836;28;20506;-63
2022/07/03 12:30:00;;;;;;;21.27;0.82;;;24.90;52.60;;;;;;4985346;28;20042;-65
2022/07/03 12:32:26;;;;;;;0.70;0.50;;;24.90;52.50;;;;;;4986745;28;20505;-65
2022/07/03 12:34:51;;;;;;;1.67;0.60;;;24.80;52.50;;;;;;4985648;28;20042;-63
2022/07/03 12:37:30;;;;;;;0.95;0.50;;;24.80;52.70;;;;;;4986272;28;20418;-63
2022/07/03 12:39:57;;;;;;;25.98;1.10;;;24.70;52.70;;;;;;4985472;28;20125;-65
2022/07/03 12:42:23;;;;;;;1.27;0.60;;;24.70;52.80;;;;;;4986443;28;20046;-67
2022/07/03 12:44:59;;;;;;;0.80;0.52;;;24.60;52.80;;;;;;4986546;28;20045;-63
2022/07/03 12:47:27;;;;;;;1.38;0.60;;;24.60;52.90;;;;;;4985443;28;20116;-65
2022/07/03 12:50:00;;;;;;;1.30;0.77;;;24.60;53.10;;;;;;4985210;28;20046;-64
2022/07/03 12:52:30;;;;;;;14.10;0.90;;;24.60;53.10;;;;;;4985545;28;20132;-67
2022/07/03 12:54:56;;;;;;;1.15;0.60;;;24.50;53.10;;;;;;4986420;28;20058;-65
2022/07/03 13:00:09;;;;;;;0.60;0.50;;;24.50;53.20;;;;;;4986142;28;20219;-67
2022/07/03 13:02:36;;;;;;;26.75;0.90;;;24.50;53.20;;;;;;4990531;28;20121;-68
2022/07/03 13:05:16;;;;;;;0.93;0.60;;;24.50;53.30;;;;;;4989155;28;20046;-66
2022/07/03 13:07:43;;;;;;;1.42;0.70;;;24.50;53.30;;;;;;4989924;28;20043;-69
2022/07/03 13:10:09;;;;;;;1.05;0.60;;;24.50;53.40;;;;;;4988653;28;20465;-68
2022/07/03 13:12:46;;;;;;;26.52;0.95;;;24.50;53.30;;;;;;4990397;28;20050;-68
2022/07/03 13:15:12;;;;;;;20.98;0.98;;;24.50;53.30;;;;;;4991207;28;20072;-68